createdAt,value
2023-01-03T00:02:18.335Z,100212.94
2023-01-03T00:04:49.409Z,100194.78
2023-01-03T00:07:34.008Z,100198.25
2023-01-03T00:10:10.510Z,100194.00
2023-01-03T00:12:38.321Z,100192.81
2023-01-03T00:15:05.977Z,100184.59
2023-01-03T00:17:33.638Z,100196.09
2023-01-03T00:20:01.207Z,100196.19
2023-01-03T00:22:32.379Z,100196.88
2023-01-03T00:24:59.819Z,100195.19
2023-01-03T00:27:27.971Z,100206.19
2023-01-03T00:29:55.581Z,100205.22
2023-01-03T00:32:23.143Z,100197.13
2023-01-03T00:34:50.454Z,100203.66
2023-01-03T00:37:17.997Z,100220.59
2023-01-03T00:39:45.330Z,100230.22
2023-01-03T00:42:13.342Z,100231.22
2023-01-03T00:44:40.684Z,100236.88
2023-01-03T00:47:08.499Z,100220.50
2023-01-03T00:49:36.038Z,100235.59
2023-01-03T00:52:03.920Z,100221.59
2023-01-03T00:54:31.184Z,100232.81
2023-01-03T00:56:58.750Z,100247.69
2023-01-03T00:59:26.279Z,100245.63
2023-01-03T01:01:56.004Z,100241.28
2023-01-03T01:04:28.697Z,100261.31
2023-01-03T01:06:58.721Z,100256.44
2023-01-03T01:09:31.913Z,100250.22
2023-01-03T01:11:59.464Z,100257.25
2023-01-03T01:14:29.236Z,100256.19
2023-01-03T01:17:01.843Z,100265.53
2023-01-03T01:19:36.548Z,100261.88
2023-01-03T01:22:04.647Z,100267.16
2023-01-03T01:24:32.944Z,100252.44
2023-01-03T01:27:01.381Z,100260.59
2023-01-03T01:29:28.617Z,100251.13
2023-01-03T01:31:56.587Z,100241.50
2023-01-03T01:34:24.165Z,100263.28
2023-01-03T01:36:51.870Z,100259.38
2023-01-03T01:39:25.875Z,100252.22
2023-01-03T01:42:20.018Z,100260.72
2023-01-03T01:44:58.003Z,100268.16
2023-01-03T01:47:38.653Z,100274.59
2023-01-03T01:50:38.539Z,100275.31
2023-01-03T01:53:12.643Z,100287.34
2023-01-03T01:55:53.810Z,100273.38
2023-01-03T01:58:26.201Z,100283.31
2023-01-03T02:00:54.304Z,100279.44
2023-01-03T02:03:21.944Z,100280.88
2023-01-03T02:05:53.256Z,100275.53
2023-01-03T02:08:22.071Z,100285.84
2023-01-03T02:11:01.249Z,100288.28
2023-01-03T02:14:02.639Z,100298.84
2023-01-03T02:17:06.895Z,100299.72
2023-01-03T02:19:53.257Z,100301.50
2023-01-03T02:22:32.626Z,100303.94
2023-01-03T02:25:18.270Z,100309.63
2023-01-03T02:28:17.873Z,100309.91
2023-01-03T02:31:01.894Z,100297.75
2023-01-03T02:33:37.739Z,100312.06
2023-01-03T02:36:31.752Z,100297.00
2023-01-03T02:39:12.970Z,100322.97
2023-01-03T02:42:18.912Z,100336.38
2023-01-03T02:45:11.127Z,100328.59
2023-01-03T02:48:01.348Z,100340.75
2023-01-03T02:50:32.501Z,100335.41
2023-01-03T02:53:04.006Z,100327.56
2023-01-03T02:55:33.856Z,100312.81
2023-01-03T02:58:13.027Z,100327.25
2023-01-03T03:00:44.286Z,100301.50
2023-01-03T03:03:17.070Z,100320.97
2023-01-03T03:05:56.823Z,100334.78
2023-01-03T03:08:24.540Z,100328.13
2023-01-03T03:11:12.955Z,100335.31
2023-01-03T03:13:52.817Z,100342.69
2023-01-03T03:16:49.563Z,100333.53
2023-01-03T03:19:41.655Z,100333.09
2023-01-03T03:22:40.643Z,100345.47
2023-01-03T03:25:23.178Z,100341.84
2023-01-03T03:28:12.911Z,100347.78
2023-01-03T03:30:44.108Z,100355.47
2023-01-03T03:33:14.203Z,100355.63
2023-01-03T03:35:50.796Z,100354.28
2023-01-03T03:38:25.702Z,100355.16
2023-01-03T03:41:31.440Z,100363.69
2023-01-03T03:44:41.105Z,100341.97
2023-01-03T03:47:42.432Z,100376.72
2023-01-03T03:50:34.936Z,100373.00
2023-01-03T03:53:06.011Z,100359.72
2023-01-03T03:55:49.779Z,100374.25
2023-01-03T03:58:21.885Z,100374.63
2023-01-03T04:00:51.903Z,100388.50
2023-01-03T04:03:21.518Z,100387.63
2023-01-03T04:05:54.748Z,100384.63
2023-01-03T04:08:22.472Z,100376.38
2023-01-03T04:10:50.042Z,100377.47
2023-01-03T04:13:18.005Z,100370.81
2023-01-03T04:15:45.286Z,100375.25
2023-01-03T04:18:13.018Z,100379.31
2023-01-03T04:20:40.268Z,100368.03
2023-01-03T04:23:07.808Z,100357.16
2023-01-03T04:25:35.143Z,100373.84
2023-01-03T04:28:02.760Z,100379.34
2023-01-03T04:30:30.048Z,100394.81
2023-01-03T04:32:57.578Z,100387.25
2023-01-03T04:35:24.869Z,100383.47
2023-01-03T04:37:52.378Z,100386.28
2023-01-03T04:40:19.595Z,100387.41
2023-01-03T04:43:05.690Z,100393.09
2023-01-03T04:45:33.014Z,100409.06
2023-01-03T04:48:01.391Z,100403.22
2023-01-03T04:50:30.337Z,100396.84
2023-01-03T04:52:58.618Z,100386.63
2023-01-03T04:55:26.470Z,100403.03
2023-01-03T04:57:54.136Z,100397.63
2023-01-03T05:00:21.508Z,100399.44
2023-01-03T05:02:49.289Z,100408.25
2023-01-03T05:05:16.691Z,100386.06
2023-01-03T05:07:44.239Z,100402.47
2023-01-03T05:10:11.527Z,100401.97
2023-01-03T05:12:39.140Z,100389.78
2023-01-03T05:15:07.125Z,100393.22
2023-01-03T05:17:34.684Z,100401.34
2023-01-03T05:20:20.517Z,100411.47
2023-01-03T05:23:06.617Z,100420.31
2023-01-03T05:25:51.991Z,100408.25
2023-01-03T05:28:21.957Z,100404.22
2023-01-03T05:30:49.530Z,100434.59
2023-01-03T05:33:17.192Z,100438.03
2023-01-03T05:35:47.756Z,100439.19
2023-01-03T05:38:15.387Z,100440.16
2023-01-03T05:40:43.158Z,100429.38
2023-01-03T05:43:10.724Z,100445.72
2023-01-03T05:45:39.311Z,100464.13
2023-01-03T05:48:08.201Z,100453.72
2023-01-03T05:50:35.711Z,100458.31
2023-01-03T05:53:04.018Z,100467.78
2023-01-03T05:55:31.318Z,100473.41
2023-01-03T05:57:58.992Z,100474.50
2023-01-03T06:00:26.249Z,100480.78
2023-01-03T06:02:53.880Z,100469.91
2023-01-03T06:05:21.180Z,100482.50
2023-01-03T06:07:48.718Z,100486.75
2023-01-03T06:10:16.006Z,100477.16
2023-01-03T06:12:43.534Z,100493.16
2023-01-03T06:15:11.373Z,100499.75
2023-01-03T06:17:58.017Z,100501.88
2023-01-03T06:20:29.357Z,100504.94
2023-01-03T06:22:57.135Z,100512.28
2023-01-03T06:25:24.910Z,100518.50
2023-01-03T06:27:52.484Z,100517.66
2023-01-03T06:30:20.977Z,100520.19
2023-01-03T06:32:48.710Z,100525.94
2023-01-03T06:35:16.006Z,100531.06
2023-01-03T06:37:43.610Z,100530.22
2023-01-03T06:40:11.328Z,100539.16
2023-01-03T06:42:45.133Z,100540.69
2023-01-03T06:45:32.572Z,100539.19
2023-01-03T06:48:27.484Z,100548.94
2023-01-03T06:51:14.088Z,100545.47
2023-01-03T06:53:43.264Z,100534.66
2023-01-03T06:56:11.776Z,100563.22
2023-01-03T06:58:39.301Z,100537.03
2023-01-03T07:01:06.870Z,100545.06
2023-01-03T07:03:34.688Z,100556.84
2023-01-03T07:06:01.963Z,100557.03
2023-01-03T07:08:29.604Z,100550.78
2023-01-03T07:10:57.000Z,100563.38
2023-01-03T07:13:43.173Z,100558.03
2023-01-03T07:16:15.346Z,100543.34
2023-01-03T07:18:43.261Z,100558.88
2023-01-03T07:21:10.687Z,100570.31
2023-01-03T07:23:38.816Z,100558.31
2023-01-03T07:26:06.732Z,100578.25
2023-01-03T07:28:34.369Z,100564.06
2023-01-03T07:31:06.439Z,100585.84
2023-01-03T07:33:34.558Z,100596.03
2023-01-03T07:36:11.003Z,100589.53
2023-01-03T07:38:44.686Z,100587.56
2023-01-03T07:41:13.309Z,100586.00
2023-01-03T07:43:45.046Z,100597.25
2023-01-03T07:46:16.082Z,100604.75
2023-01-03T07:48:45.959Z,100595.47
2023-01-03T07:51:14.838Z,100594.19
2023-01-03T07:53:44.032Z,100592.63
2023-01-03T07:56:14.399Z,100597.63
2023-01-03T07:58:43.399Z,100600.97
2023-01-03T08:01:13.739Z,100607.88
2023-01-03T08:03:42.640Z,100607.72
2023-01-03T08:06:15.123Z,100620.44
2023-01-03T08:08:43.376Z,100611.88
2023-01-03T08:11:33.185Z,100617.94
2023-01-03T08:14:00.784Z,100626.34
2023-01-03T08:16:28.763Z,100637.91
2023-01-03T08:18:56.397Z,100645.81
2023-01-03T08:21:23.759Z,100645.25
2023-01-03T08:23:51.378Z,100622.56
2023-01-03T08:26:19.022Z,100646.97
2023-01-03T08:28:46.577Z,100654.44
2023-01-03T08:31:18.544Z,100654.75
2023-01-03T08:34:13.582Z,100650.59
2023-01-03T08:36:57.456Z,100677.84
2023-01-03T08:39:29.956Z,100663.00
2023-01-03T08:42:04.833Z,100668.91
2023-01-03T08:44:32.757Z,100661.47
2023-01-03T08:47:07.980Z,100667.16
2023-01-03T08:49:36.571Z,100674.66
2023-01-03T08:52:04.502Z,100668.47
2023-01-03T08:54:32.277Z,100679.34
2023-01-03T08:56:59.518Z,100694.88
2023-01-03T08:59:27.180Z,100678.94
2023-01-03T09:01:58.852Z,100691.28
2023-01-03T09:04:26.789Z,100679.59
2023-01-03T09:06:54.102Z,100701.78
2023-01-03T09:09:21.743Z,100705.19
2023-01-03T09:11:49.060Z,100717.16
2023-01-03T09:14:16.669Z,100724.97
2023-01-03T09:16:49.018Z,100722.75
2023-01-03T09:19:17.295Z,100720.81
2023-01-03T09:21:44.573Z,100722.41
2023-01-03T09:24:12.151Z,100727.75
2023-01-03T09:26:39.401Z,100737.78
2023-01-03T09:29:07.007Z,100734.59
2023-01-03T09:31:35.387Z,100745.03
2023-01-03T09:34:05.344Z,100724.13
2023-01-03T09:36:33.179Z,100741.66
2023-01-03T09:39:00.828Z,100727.53
2023-01-03T09:41:28.638Z,100738.13
2023-01-03T09:44:03.933Z,100743.03
2023-01-03T09:46:33.358Z,100738.66
2023-01-03T09:49:02.387Z,100736.63
2023-01-03T09:51:50.579Z,100737.25
2023-01-03T09:54:47.956Z,100740.00
2023-01-03T09:57:45.059Z,100732.41
2023-01-03T10:00:59.213Z,100739.56
2023-01-03T10:03:50.208Z,100749.22
2023-01-03T10:06:21.804Z,100740.38
2023-01-03T10:09:13.317Z,100737.94
2023-01-03T10:11:58.625Z,100718.84
2023-01-03T10:14:52.126Z,100744.72
2023-01-03T10:17:36.022Z,100746.09
2023-01-03T10:20:09.353Z,100747.50
2023-01-03T10:22:39.198Z,100747.31
2023-01-03T10:25:15.631Z,100752.06
2023-01-03T10:27:48.427Z,100749.44
2023-01-03T10:30:26.107Z,100747.00
2023-01-03T10:33:12.175Z,100750.50
2023-01-03T10:35:39.460Z,100761.50
2023-01-03T10:38:07.029Z,100761.53
2023-01-03T10:40:42.966Z,100758.75
2023-01-03T10:43:31.694Z,100773.03
2023-01-03T10:46:01.854Z,100765.56
2023-01-03T10:49:17.059Z,100770.97
2023-01-03T10:51:43.202Z,100779.31
2023-01-03T10:54:31.243Z,100772.25
2023-01-03T10:56:58.797Z,100769.47
2023-01-03T10:59:32.031Z,100776.47
2023-01-03T11:01:59.398Z,100779.84
2023-01-03T11:04:29.191Z,100770.22
2023-01-03T11:07:13.587Z,100774.47
2023-01-03T11:09:54.527Z,100799.75
2023-01-03T11:12:37.052Z,100788.84
2023-01-03T11:15:17.034Z,100782.47
2023-01-03T11:18:06.202Z,100798.59
2023-01-03T11:20:47.750Z,100804.38
2023-01-03T11:23:53.436Z,100802.44
2023-01-03T11:26:43.393Z,100802.09
2023-01-03T11:29:21.493Z,100795.16
2023-01-03T11:32:03.276Z,100808.78
2023-01-03T11:34:48.262Z,100818.25
2023-01-03T11:37:24.400Z,100817.13
2023-01-03T11:40:00.790Z,100823.19
2023-01-03T11:42:54.508Z,100826.81
2023-01-03T11:45:21.746Z,100821.38
2023-01-03T11:48:25.452Z,100825.34
2023-01-03T11:50:55.164Z,100828.31
2023-01-03T11:53:38.132Z,100829.09
2023-01-03T11:56:19.501Z,100826.56
2023-01-03T11:59:08.432Z,100833.13
2023-01-03T12:01:46.758Z,100826.28
2023-01-03T12:04:24.982Z,100833.22
2023-01-03T12:07:48.031Z,100824.47
2023-01-03T12:10:29.907Z,100840.19
2023-01-03T12:13:09.061Z,100840.19
2023-01-03T12:16:09.076Z,100829.81
2023-01-03T12:18:42.205Z,100840.28
2023-01-03T12:21:36.861Z,100835.59
2023-01-03T12:24:20.734Z,100833.94
2023-01-03T12:26:54.962Z,100836.72
2023-01-03T12:29:31.656Z,100854.78
2023-01-03T12:32:10.068Z,100845.47
2023-01-03T12:34:50.386Z,100847.13
2023-01-03T12:37:24.707Z,100846.22
2023-01-03T12:39:56.689Z,100842.16
2023-01-03T12:42:27.453Z,100847.56
2023-01-03T12:45:18.830Z,100860.28
2023-01-03T12:47:58.775Z,100853.06
2023-01-03T12:50:46.994Z,100863.66
2023-01-03T12:53:29.561Z,100861.38
2023-01-03T12:56:27.940Z,100858.16
2023-01-03T12:59:01.727Z,100863.13
2023-01-03T13:01:43.435Z,100870.16
2023-01-03T13:04:31.284Z,100866.34
2023-01-03T13:07:07.296Z,100864.22
2023-01-03T13:09:43.522Z,100872.59
2023-01-03T13:12:24.303Z,100872.13
2023-01-03T13:14:57.613Z,100880.50
2023-01-03T13:17:26.735Z,100881.56
2023-01-03T13:19:58.928Z,100887.28
2023-01-03T13:22:50.643Z,100886.09
2023-01-03T13:25:29.862Z,100883.91
2023-01-03T13:28:04.450Z,100890.19
2023-01-03T13:30:34.760Z,100877.59
2023-01-03T13:33:01.939Z,100885.22
2023-01-03T13:35:33.508Z,100889.66
2023-01-03T13:38:31.587Z,100904.38
2023-01-03T13:41:21.305Z,100908.47
2023-01-03T13:43:51.853Z,100893.34
2023-01-03T13:46:31.397Z,100894.97
2023-01-03T13:48:58.901Z,100904.56
2023-01-03T13:51:34.253Z,100898.38
2023-01-03T13:54:13.652Z,100896.94
2023-01-03T13:56:44.092Z,100910.78
2023-01-03T13:59:42.205Z,100900.28
2023-01-03T14:02:09.852Z,100919.91
2023-01-03T14:04:58.272Z,100926.56
2023-01-03T14:07:56.896Z,100924.31
2023-01-03T14:10:45.779Z,100928.19
2023-01-03T14:13:31.854Z,100931.72
2023-01-03T14:16:19.138Z,100931.53
2023-01-03T14:19:25.737Z,100935.75
2023-01-03T14:22:34.868Z,100939.25
2023-01-03T14:25:02.614Z,100928.13
2023-01-03T14:27:37.937Z,100929.16
2023-01-03T14:30:21.245Z,100933.72
2023-01-03T14:32:48.777Z,100946.47
2023-01-03T14:35:32.593Z,100938.78
2023-01-03T14:38:06.183Z,100931.56
2023-01-03T14:40:34.693Z,100942.38
2023-01-03T14:43:04.973Z,100938.16
2023-01-03T14:45:32.562Z,100947.53
2023-01-03T14:47:59.899Z,100956.72
2023-01-03T14:50:29.785Z,100950.50
2023-01-03T14:52:59.653Z,100951.94
2023-01-03T14:55:30.128Z,100957.63
2023-01-03T14:57:59.339Z,100957.53
2023-01-03T15:00:33.310Z,100970.16
2023-01-03T15:03:04.803Z,100949.13
2023-01-03T15:05:35.897Z,100965.19
2023-01-03T15:08:15.381Z,100970.31
2023-01-03T15:10:49.597Z,100943.97
2023-01-03T15:13:25.883Z,100966.69
2023-01-03T15:15:57.163Z,100975.28
2023-01-03T15:18:27.214Z,100977.66
2023-01-03T15:20:57.389Z,100976.63
2023-01-03T15:23:45.862Z,100980.50
2023-01-03T15:26:23.847Z,100988.84
2023-01-03T15:29:15.614Z,100981.41
2023-01-03T15:31:48.057Z,100984.81
2023-01-03T15:34:30.855Z,100995.88
2023-01-03T15:37:02.767Z,100995.28
2023-01-03T15:40:03.443Z,100992.25
2023-01-03T15:42:57.927Z,100998.22
2023-01-03T15:45:33.298Z,101006.34
2023-01-03T15:48:01.999Z,100997.41
2023-01-03T15:50:59.788Z,101006.47
2023-01-03T15:53:31.517Z,101014.38
2023-01-03T15:56:06.000Z,101022.47
2023-01-03T15:58:35.533Z,101013.88
2023-01-03T16:01:04.539Z,101028.09
2023-01-03T16:03:34.506Z,101034.19
2023-01-03T16:06:02.935Z,101020.19
2023-01-03T16:08:36.321Z,101026.53
2023-01-03T16:11:10.057Z,101033.09
2023-01-03T16:13:41.169Z,101053.72
2023-01-03T16:16:09.977Z,101049.84
2023-01-03T16:18:46.401Z,101020.34
2023-01-03T16:21:14.341Z,101038.63
2023-01-03T16:23:42.152Z,101035.00
2023-01-03T16:26:09.771Z,101031.22
2023-01-03T16:28:37.522Z,101048.59
2023-01-03T16:31:19.320Z,101050.28
2023-01-03T16:33:49.249Z,101044.25
2023-01-03T16:36:29.521Z,101045.84
2023-01-03T16:38:58.113Z,101044.63
2023-01-03T16:41:25.724Z,101049.25
2023-01-03T16:43:54.434Z,101037.56
2023-01-03T16:46:24.060Z,101039.44
2023-01-03T16:48:53.592Z,101049.84
2023-01-03T16:51:27.282Z,101043.69
2023-01-03T16:53:56.725Z,101055.22
2023-01-03T16:56:24.910Z,101066.41
2023-01-03T16:58:53.201Z,101064.94
2023-01-03T17:01:20.983Z,101068.06
2023-01-03T17:03:48.832Z,101053.28
2023-01-03T17:06:37.817Z,101068.75
2023-01-03T17:09:17.609Z,101074.06
2023-01-03T17:11:45.774Z,101071.84
2023-01-03T17:14:19.185Z,101064.19
2023-01-03T17:16:47.233Z,101074.50
2023-01-03T17:20:01.902Z,101073.03
2023-01-03T17:22:17.401Z,101082.03
2023-01-03T17:24:45.557Z,101081.44
2023-01-03T17:27:32.761Z,101084.09
2023-01-03T17:30:04.646Z,101072.84
2023-01-03T17:32:32.102Z,101084.97
2023-01-03T17:35:00.111Z,101082.59
2023-01-03T17:37:27.553Z,101083.97
2023-01-03T17:40:00.193Z,101090.06
2023-01-03T17:42:29.248Z,101086.13
2023-01-03T17:45:15.261Z,101096.84
2023-01-03T17:48:02.620Z,101087.25
2023-01-03T17:50:31.935Z,101093.78
2023-01-03T17:53:02.005Z,101100.88
2023-01-03T17:55:30.865Z,101105.56
2023-01-03T17:58:01.704Z,101106.06
2023-01-03T18:00:30.231Z,101105.81
2023-01-03T18:03:00.498Z,101105.38
2023-01-03T18:05:30.047Z,101108.19
2023-01-03T18:08:01.914Z,101121.38
2023-01-03T18:10:41.769Z,101119.81
2023-01-03T18:13:23.603Z,101123.94
2023-01-03T18:15:52.068Z,101111.81
2023-01-03T18:18:22.107Z,101127.00
2023-01-03T18:20:50.306Z,101123.91
2023-01-03T18:23:22.734Z,101127.47
2023-01-03T18:25:51.854Z,101130.19
2023-01-03T18:28:24.705Z,101120.16
2023-01-03T18:30:53.577Z,101123.00
2023-01-03T18:33:21.231Z,101131.31
2023-01-03T18:35:49.352Z,101133.22
2023-01-03T18:38:29.566Z,101120.72
2023-01-03T18:41:04.539Z,101120.38
2023-01-03T18:43:33.409Z,101136.72
2023-01-03T18:46:01.381Z,101129.06
2023-01-03T18:48:28.855Z,101130.44
2023-01-03T18:50:59.466Z,101127.75
2023-01-03T18:53:31.529Z,101134.19
2023-01-03T18:56:00.487Z,101140.53
2023-01-03T18:58:39.088Z,101153.03
2023-01-03T19:01:07.051Z,101153.31
2023-01-03T19:03:36.057Z,101159.75
2023-01-03T19:06:16.372Z,101155.78
2023-01-03T19:08:43.959Z,101154.41
2023-01-03T19:11:17.402Z,101147.16
2023-01-03T19:13:51.528Z,101149.69
2023-01-03T19:16:27.999Z,101147.31
2023-01-03T19:18:56.183Z,101147.84
2023-01-03T19:21:24.831Z,101142.25
2023-01-03T19:24:22.709Z,101143.88
2023-01-03T19:27:02.658Z,101141.31
2023-01-03T19:29:37.152Z,101150.88
2023-01-03T19:32:10.850Z,101155.00
2023-01-03T19:34:38.268Z,101148.56
2023-01-03T19:37:05.959Z,101148.19
2023-01-03T19:39:37.300Z,101138.13
2023-01-03T19:42:26.644Z,101144.22
2023-01-03T19:44:55.284Z,101138.22
2023-01-03T19:47:22.832Z,101151.34
2023-01-03T19:49:50.329Z,101155.34
2023-01-03T19:52:18.547Z,101142.19
2023-01-03T19:54:45.831Z,101149.88
2023-01-03T19:57:22.124Z,101141.16
2023-01-03T19:59:53.754Z,101159.72
2023-01-03T20:02:35.034Z,101152.63
2023-01-03T20:05:03.113Z,101149.56
2023-01-03T20:07:30.765Z,101152.28
2023-01-03T20:09:58.090Z,101155.09
2023-01-03T20:12:26.646Z,101158.84
2023-01-03T20:14:59.957Z,101155.44
2023-01-03T20:17:30.369Z,101166.06
2023-01-03T20:19:57.934Z,101156.13
2023-01-03T20:23:02.379Z,101167.38
2023-01-03T20:25:31.303Z,101168.56
2023-01-03T20:28:00.160Z,101183.97
2023-01-03T20:30:30.246Z,101185.75
2023-01-03T20:32:57.953Z,101185.75
2023-01-03T20:38:24.756Z,101177.47
2023-01-03T20:40:53.281Z,101176.97
2023-01-03T20:43:21.603Z,101170.13
2023-01-03T20:45:53.433Z,101174.72
2023-01-03T20:48:25.516Z,101170.56
2023-01-03T20:50:53.944Z,101184.06
2023-01-03T20:53:26.153Z,101171.63
2023-01-03T20:55:54.041Z,101190.03
2023-01-03T20:58:27.976Z,101187.50
2023-01-03T21:01:02.061Z,101192.19
2023-01-03T21:03:33.078Z,101191.50
2023-01-03T21:06:00.578Z,101182.41
2023-01-03T21:08:47.030Z,101179.75
2023-01-03T21:11:14.686Z,101178.66
2023-01-03T21:13:42.413Z,101182.94
2023-01-03T21:16:36.887Z,101183.09
2023-01-03T21:19:22.124Z,101188.00
2023-01-03T21:21:51.976Z,101195.31
2023-01-03T21:24:22.565Z,101188.00
2023-01-03T21:26:50.125Z,101186.34
2023-01-03T21:29:18.048Z,101193.38
2023-01-03T21:31:45.492Z,101197.56
2023-01-03T21:34:21.224Z,101198.28
2023-01-03T21:36:49.300Z,101190.13
2023-01-03T21:39:16.940Z,101185.47
2023-01-03T21:42:03.134Z,101196.09
2023-01-03T21:44:30.530Z,101196.03
2023-01-03T21:46:58.067Z,101200.59
2023-01-03T21:49:25.338Z,101202.78
2023-01-03T21:51:52.993Z,101207.31
2023-01-03T21:54:20.998Z,101206.34
2023-01-03T21:56:48.944Z,101206.88
2023-01-03T21:59:16.832Z,101203.97
2023-01-03T22:02:15.390Z,101211.38
2023-01-03T22:04:42.681Z,101208.63
2023-01-03T22:07:10.255Z,101211.88
2023-01-03T22:09:56.109Z,101209.91
2023-01-03T22:12:23.765Z,101213.06
2023-01-03T22:14:51.018Z,101222.09
2023-01-03T22:17:18.673Z,101220.13
2023-01-03T22:19:45.943Z,101222.34
2023-01-03T22:22:13.589Z,101226.47
2023-01-03T22:24:41.089Z,101234.41
2023-01-03T22:27:08.921Z,101229.16
2023-01-03T22:29:36.233Z,101237.34
2023-01-03T22:32:04.032Z,101231.81
2023-01-03T22:34:31.475Z,101232.88
2023-01-03T22:36:58.965Z,101238.19
2023-01-03T22:39:26.235Z,101238.00
2023-01-03T22:41:53.908Z,101238.19
2023-01-03T22:44:21.327Z,101233.50
2023-01-03T22:46:48.938Z,101246.72
2023-01-03T22:49:16.180Z,101231.69
2023-01-03T22:51:43.717Z,101224.47
2023-01-03T22:54:10.979Z,101222.09
2023-01-03T22:56:38.548Z,101215.66
2023-01-03T22:59:05.831Z,101222.47
2023-01-03T23:01:34.293Z,101237.97
2023-01-03T23:04:03.348Z,101226.59
2023-01-03T23:06:32.054Z,101234.34
2023-01-03T23:09:00.202Z,101239.56
2023-01-03T23:11:48.770Z,101213.50
2023-01-03T23:14:18.235Z,101219.53
2023-01-03T23:16:47.112Z,101221.75
2023-01-03T23:19:16.635Z,101214.63
2023-01-03T23:21:47.353Z,101225.97
2023-01-03T23:24:17.473Z,101220.13
2023-01-03T23:26:45.213Z,101222.03
2023-01-03T23:29:14.471Z,101235.94
2023-01-03T23:31:42.963Z,101229.28
2023-01-03T23:34:11.406Z,101227.97
2023-01-03T23:36:39.393Z,101225.84
2023-01-03T23:39:06.668Z,101231.84
2023-01-03T23:41:34.656Z,101229.72
2023-01-03T23:44:01.904Z,101217.84
2023-01-03T23:46:29.762Z,101223.59
2023-01-03T23:48:58.124Z,101212.69
2023-01-03T23:51:26.271Z,101223.84
2023-01-03T23:53:54.434Z,101218.19
2023-01-03T23:56:24.454Z,101217.31
2023-01-03T23:58:52.877Z,101212.94
